sensor_id;sensor_type;location;lat;lon;timestamp;pressure;altitude;pressure_sealevel;temperature;humidity
72055;BME280;59936;51.490;5.436;2024-03-22T00:02:15;102013.69;;;11.16;86.55
72055;BME280;59936;51.490;5.436;2024-03-22T00:04:42;102003.94;;;11.15;86.88
72055;BME280;59936;51.490;5.436;2024-03-22T00:07:09;102007.03;;;11.20;84.48
72055;BME280;59936;51.490;5.436;2024-03-22T00:09:36;101997.00;;;11.22;86.51
72055;BME280;59936;51.490;5.436;2024-03-22T00:12:03;101996.13;;;11.31;84.68
72055;BME280;59936;51.490;5.436;2024-03-22T00:14:30;101996.97;;;11.32;87.53
72055;BME280;59936;51.490;5.436;2024-03-22T00:16:56;101998.81;;;11.31;84.99
72055;BME280;59936;51.490;5.436;2024-03-22T00:19:23;101995.03;;;11.24;83.70
72055;BME280;59936;51.490;5.436;2024-03-22T00:21:50;101999.41;;;11.25;86.58
72055;BME280;59936;51.490;5.436;2024-03-22T00:24:17;101989.34;;;11.37;83.86
72055;BME280;59936;51.490;5.436;2024-03-22T00:26:44;101983.84;;;11.29;84.60
72055;BME280;59936;51.490;5.436;2024-03-22T00:29:11;101992.03;;;11.27;84.25
72055;BME280;59936;51.490;5.436;2024-03-22T00:31:37;101992.75;;;11.29;88.87
72055;BME280;59936;51.490;5.436;2024-03-22T00:34:04;101991.59;;;11.32;87.27
72055;BME280;59936;51.490;5.436;2024-03-22T00:36:31;101981.72;;;11.32;86.57
72055;BME280;59936;51.490;5.436;2024-03-22T00:38:58;101990.75;;;11.31;84.77
72055;BME280;59936;51.490;5.436;2024-03-22T00:41:25;101970.41;;;11.39;85.15
72055;BME280;59936;51.490;5.436;2024-03-22T00:43:51;101970.41;;;11.39;85.15
72055;BME280;59936;51.490;5.436;2024-03-22T00:46:18;101968.16;;;11.34;85.00
72055;BME280;59936;51.490;5.436;2024-03-22T00:48:45;101961.28;;;11.49;84.25
72055;BME280;59936;51.490;5.436;2024-03-22T00:51:12;101961.28;;;11.49;84.25
72055;BME280;59936;51.490;5.436;2024-03-22T00:53:39;101948.91;;;11.39;84.65
72055;BME280;59936;51.490;5.436;2024-03-22T00:56:06;101951.88;;;11.36;85.36
72055;BME280;59936;51.490;5.436;2024-03-22T00:58:33;101941.16;;;11.36;84.13
72055;BME280;59936;51.490;5.436;2024-03-22T01:00:59;101938.88;;;11.41;85.57
72055;BME280;59936;51.490;5.436;2024-03-22T01:07:56;101919.50;;;11.47;86.66
72055;BME280;59936;51.490;5.436;2024-03-22T01:10:23;101910.28;;;11.49;84.72
72055;BME280;59936;51.490;5.436;2024-03-22T01:12:50;101902.47;;;11.56;83.11
72055;BME280;59936;51.490;5.436;2024-03-22T01:25:49;101883.69;;;11.56;86.38
72055;BME280;59936;51.490;5.436;2024-03-22T01:28:15;101881.16;;;11.72;84.08
72055;BME280;59936;51.490;5.436;2024-03-22T01:30:42;101878.78;;;11.79;84.27
72055;BME280;59936;51.490;5.436;2024-03-22T01:33:09;101890.38;;;11.69;84.13
72055;BME280;59936;51.490;5.436;2024-03-22T01:35:36;101896.16;;;11.75;85.70
72055;BME280;59936;51.490;5.436;2024-03-22T01:38:03;101884.69;;;11.73;84.70
72055;BME280;59936;51.490;5.436;2024-03-22T01:40:30;101880.94;;;11.65;87.80
72055;BME280;59936;51.490;5.436;2024-03-22T01:42:57;101870.50;;;11.62;84.85
72055;BME280;59936;51.490;5.436;2024-03-22T01:45:25;101873.88;;;11.64;87.20
72055;BME280;59936;51.490;5.436;2024-03-22T01:47:57;101868.25;;;11.58;85.99
72055;BME280;59936;51.490;5.436;2024-03-22T01:50:27;101861.91;;;11.59;86.49
72055;BME280;59936;51.490;5.436;2024-03-22T01:52:54;101862.34;;;11.54;87.94
72055;BME280;59936;51.490;5.436;2024-03-22T01:55:22;101860.94;;;11.50;85.95
72055;BME280;59936;51.490;5.436;2024-03-22T01:57:49;101858.66;;;11.55;84.12
72055;BME280;59936;51.490;5.436;2024-03-22T02:00:19;101854.69;;;11.59;85.57
72055;BME280;59936;51.490;5.436;2024-03-22T02:02:46;101851.50;;;11.46;85.76
72055;BME280;59936;51.490;5.436;2024-03-22T02:05:16;101862.25;;;11.46;85.46
72055;BME280;59936;51.490;5.436;2024-03-22T02:07:43;101864.69;;;11.40;86.43
72055;BME280;59936;51.490;5.436;2024-03-22T02:10:12;101871.22;;;11.27;86.27
72055;BME280;59936;51.490;5.436;2024-03-22T02:12:40;101867.59;;;11.19;85.36
72055;BME280;59936;51.490;5.436;2024-03-22T02:15:08;101863.41;;;11.07;87.21
72055;BME280;59936;51.490;5.436;2024-03-22T02:17:35;101864.56;;;11.04;84.91
72055;BME280;59936;51.490;5.436;2024-03-22T02:20:02;101863.53;;;11.05;84.13
72055;BME280;59936;51.490;5.436;2024-03-22T02:22:30;101861.03;;;11.04;85.51
72055;BME280;59936;51.490;5.436;2024-03-22T02:24:56;101849.47;;;11.03;87.95
72055;BME280;59936;51.490;5.436;2024-03-22T02:27:25;101853.28;;;11.01;85.72
72055;BME280;59936;51.490;5.436;2024-03-22T02:29:52;101852.72;;;10.97;85.89
72055;BME280;59936;51.490;5.436;2024-03-22T02:32:19;101849.75;;;11.00;84.94
72055;BME280;59936;51.490;5.436;2024-03-22T02:34:45;101842.69;;;10.99;86.88
72055;BME280;59936;51.490;5.436;2024-03-22T02:37:12;101844.75;;;11.05;87.05
72055;BME280;59936;51.490;5.436;2024-03-22T02:39:39;101855.50;;;11.05;85.60
72055;BME280;59936;51.490;5.436;2024-03-22T02:42:06;101857.19;;;11.06;84.56
72055;BME280;59936;51.490;5.436;2024-03-22T02:44:33;101848.69;;;11.11;87.39
72055;BME280;59936;51.490;5.436;2024-03-22T02:47:00;101842.91;;;11.06;85.93
72055;BME280;59936;51.490;5.436;2024-03-22T02:49:26;101843.63;;;11.08;84.74
72055;BME280;59936;51.490;5.436;2024-03-22T02:51:53;101843.38;;;11.01;86.34
72055;BME280;59936;51.490;5.436;2024-03-22T02:54:20;101828.97;;;11.02;85.24
72055;BME280;59936;51.490;5.436;2024-03-22T02:56:47;101825.50;;;11.19;85.61
72055;BME280;59936;51.490;5.436;2024-03-22T02:59:14;101812.09;;;11.19;85.21
72055;BME280;59936;51.490;5.436;2024-03-22T03:01:41;101801.56;;;11.26;83.97
72055;BME280;59936;51.490;5.436;2024-03-22T03:04:07;101787.53;;;11.14;87.91
72055;BME280;59936;51.490;5.436;2024-03-22T03:06:35;101771.84;;;11.10;85.58
72055;BME280;59936;51.490;5.436;2024-03-22T03:09:02;101782.84;;;11.16;86.30
72055;BME280;59936;51.490;5.436;2024-03-22T03:11:29;101774.50;;;11.19;86.84
72055;BME280;59936;51.490;5.436;2024-03-22T03:13:55;101781.72;;;11.19;85.75
72055;BME280;59936;51.490;5.436;2024-03-22T03:16:22;101786.22;;;11.18;86.18
72055;BME280;59936;51.490;5.436;2024-03-22T03:18:49;101783.56;;;11.18;84.50
72055;BME280;59936;51.490;5.436;2024-03-22T03:21:16;101779.47;;;11.14;85.49
72055;BME280;59936;51.490;5.436;2024-03-22T03:23:43;101780.47;;;11.13;84.57
72055;BME280;59936;51.490;5.436;2024-03-22T03:26:09;101779.97;;;11.00;86.32
72055;BME280;59936;51.490;5.436;2024-03-22T03:28:36;101773.91;;;10.98;85.97
72055;BME280;59936;51.490;5.436;2024-03-22T03:31:03;101772.69;;;10.83;88.50
72055;BME280;59936;51.490;5.436;2024-03-22T03:33:30;101764.63;;;10.83;87.45
72055;BME280;59936;51.490;5.436;2024-03-22T03:35:58;101762.28;;;10.80;88.43
72055;BME280;59936;51.490;5.436;2024-03-22T03:38:25;101752.81;;;10.76;89.24
72055;BME280;59936;51.490;5.436;2024-03-22T03:40:51;101754.41;;;10.69;87.92
72055;BME280;59936;51.490;5.436;2024-03-22T03:43:18;101740.13;;;10.78;86.33
72055;BME280;59936;51.490;5.436;2024-03-22T03:45:45;101745.22;;;10.71;88.69
72055;BME280;59936;51.490;5.436;2024-03-22T03:48:12;101738.75;;;10.64;87.68
72055;BME280;59936;51.490;5.436;2024-03-22T03:50:39;101728.72;;;10.66;88.97
72055;BME280;59936;51.490;5.436;2024-03-22T03:53:05;101732.22;;;10.76;87.48
72055;BME280;59936;51.490;5.436;2024-03-22T03:55:32;101731.81;;;10.71;86.41
72055;BME280;59936;51.490;5.436;2024-03-22T03:57:59;101721.22;;;10.70;86.95
72055;BME280;59936;51.490;5.436;2024-03-22T04:00:26;101726.72;;;10.68;87.10
72055;BME280;59936;51.490;5.436;2024-03-22T04:02:53;101735.91;;;10.65;86.16
72055;BME280;59936;51.490;5.436;2024-03-22T04:05:19;101732.84;;;10.60;87.29
72055;BME280;59936;51.490;5.436;2024-03-22T04:07:47;101736.91;;;10.64;87.86
72055;BME280;59936;51.490;5.436;2024-03-22T04:10:14;101726.59;;;10.70;85.71
72055;BME280;59936;51.490;5.436;2024-03-22T04:12:41;101726.19;;;10.64;87.24
72055;BME280;59936;51.490;5.436;2024-03-22T04:15:08;101717.75;;;10.59;88.19
72055;BME280;59936;51.490;5.436;2024-03-22T04:17:35;101722.00;;;10.52;89.48
72055;BME280;59936;51.490;5.436;2024-03-22T04:20:02;101724.50;;;10.63;88.46
72055;BME280;59936;51.490;5.436;2024-03-22T04:22:29;101734.00;;;10.58;87.57
72055;BME280;59936;51.490;5.436;2024-03-22T04:24:56;101717.25;;;10.74;86.34
72055;BME280;59936;51.490;5.436;2024-03-22T04:27:23;101716.41;;;10.73;87.03
72055;BME280;59936;51.490;5.436;2024-03-22T04:29:50;101714.88;;;10.71;87.52
72055;BME280;59936;51.490;5.436;2024-03-22T04:32:17;101721.50;;;10.67;87.33
72055;BME280;59936;51.490;5.436;2024-03-22T04:34:44;101716.69;;;10.70;86.05
72055;BME280;59936;51.490;5.436;2024-03-22T04:37:10;101721.09;;;10.61;88.38
72055;BME280;59936;51.490;5.436;2024-03-22T04:39:39;101715.00;;;10.69;87.87
72055;BME280;59936;51.490;5.436;2024-03-22T04:42:06;101724.31;;;10.75;86.87
72055;BME280;59936;51.490;5.436;2024-03-22T04:44:33;101714.03;;;10.70;87.52
72055;BME280;59936;51.490;5.436;2024-03-22T04:47:00;101712.91;;;10.63;86.37
72055;BME280;59936;51.490;5.436;2024-03-22T04:49:27;101714.91;;;10.61;86.25
72055;BME280;59936;51.490;5.436;2024-03-22T04:51:54;101720.97;;;10.63;86.95
72055;BME280;59936;51.490;5.436;2024-03-22T04:54:22;101720.53;;;10.68;86.64
72055;BME280;59936;51.490;5.436;2024-03-22T04:56:49;101722.56;;;10.83;86.26
72055;BME280;59936;51.490;5.436;2024-03-22T04:59:16;101712.78;;;10.64;88.17
72055;BME280;59936;51.490;5.436;2024-03-22T05:01:43;101710.69;;;10.58;87.34
72055;BME280;59936;51.490;5.436;2024-03-22T05:04:10;101705.72;;;10.63;86.83
72055;BME280;59936;51.490;5.436;2024-03-22T05:06:37;101707.78;;;10.79;85.29
72055;BME280;59936;51.490;5.436;2024-03-22T05:09:03;101701.53;;;10.51;88.27
72055;BME280;59936;51.490;5.436;2024-03-22T05:11:30;101701.53;;;10.51;88.27
72055;BME280;59936;51.490;5.436;2024-03-22T05:13:57;101690.25;;;10.48;87.08
72055;BME280;59936;51.490;5.436;2024-03-22T05:16:24;101689.41;;;10.47;86.50
72055;BME280;59936;51.490;5.436;2024-03-22T05:18:51;101693.75;;;10.58;86.34
72055;BME280;59936;51.490;5.436;2024-03-22T05:21:18;101693.75;;;10.58;86.34
72055;BME280;59936;51.490;5.436;2024-03-22T05:23:45;101697.75;;;10.44;86.74
72055;BME280;59936;51.490;5.436;2024-03-22T05:26:12;101688.72;;;10.45;87.56
72055;BME280;59936;51.490;5.436;2024-03-22T05:28:39;101689.16;;;10.41;87.12
72055;BME280;59936;51.490;5.436;2024-03-22T05:31:06;101699.34;;;10.37;87.54
72055;BME280;59936;51.490;5.436;2024-03-22T05:33:33;101689.19;;;10.31;88.91
72055;BME280;59936;51.490;5.436;2024-03-22T05:35:59;101695.84;;;10.27;88.36
72055;BME280;59936;51.490;5.436;2024-03-22T05:38:26;101694.16;;;10.26;88.22
72055;BME280;59936;51.490;5.436;2024-03-22T05:40:53;101692.31;;;10.36;87.19
72055;BME280;59936;51.490;5.436;2024-03-22T05:43:20;101689.50;;;10.28;88.88
72055;BME280;59936;51.490;5.436;2024-03-22T05:45:47;101689.06;;;10.23;87.98
72055;BME280;59936;51.490;5.436;2024-03-22T05:48:13;101686.25;;;10.24;88.12
72055;BME280;59936;51.490;5.436;2024-03-22T05:50:40;101682.84;;;10.32;89.65
72055;BME280;59936;51.490;5.436;2024-03-22T05:53:07;101685.81;;;10.39;87.35
72055;BME280;59936;51.490;5.436;2024-03-22T05:55:34;101679.28;;;10.41;86.98
72055;BME280;59936;51.490;5.436;2024-03-22T05:58:01;101683.13;;;10.29;89.27
72055;BME280;59936;51.490;5.436;2024-03-22T06:00:28;101677.94;;;10.27;88.97
72055;BME280;59936;51.490;5.436;2024-03-22T06:02:55;101675.94;;;10.39;87.05
72055;BME280;59936;51.490;5.436;2024-03-22T06:05:21;101669.31;;;10.34;87.53
72055;BME280;59936;51.490;5.436;2024-03-22T06:07:48;101665.22;;;10.29;87.73
72055;BME280;59936;51.490;5.436;2024-03-22T06:10:15;101674.22;;;10.38;86.46
72055;BME280;59936;51.490;5.436;2024-03-22T06:12:42;101670.84;;;10.36;86.80
72055;BME280;59936;51.490;5.436;2024-03-22T06:15:09;101674.22;;;10.38;86.29
72055;BME280;59936;51.490;5.436;2024-03-22T06:17:36;101675.22;;;10.37;86.75
72055;BME280;59936;51.490;5.436;2024-03-22T06:20:03;101678.28;;;10.42;85.66
72055;BME280;59936;51.490;5.436;2024-03-22T06:22:30;101673.34;;;10.47;85.36
72055;BME280;59936;51.490;5.436;2024-03-22T06:24:57;101676.91;;;10.38;85.95
72055;BME280;59936;51.490;5.436;2024-03-22T06:27:24;101667.97;;;10.47;85.58
72055;BME280;59936;51.490;5.436;2024-03-22T06:29:51;101664.59;;;10.45;85.71
72055;BME280;59936;51.490;5.436;2024-03-22T06:32:17;101663.75;;;10.45;86.11
72055;BME280;59936;51.490;5.436;2024-03-22T06:34:44;101669.06;;;10.54;84.98
72055;BME280;59936;51.490;5.436;2024-03-22T06:37:11;101669.38;;;10.51;85.96
72055;BME280;59936;51.490;5.436;2024-03-22T06:39:38;101663.88;;;10.53;85.97
72055;BME280;59936;51.490;5.436;2024-03-22T06:42:05;101666.59;;;10.71;84.16
72055;BME280;59936;51.490;5.436;2024-03-22T06:44:32;101667.31;;;10.63;84.71
72055;BME280;59936;51.490;5.436;2024-03-22T06:46:58;101671.84;;;10.62;84.71
72055;BME280;59936;51.490;5.436;2024-03-22T06:49:25;101668.44;;;10.70;84.25
72055;BME280;59936;51.490;5.436;2024-03-22T06:51:52;101660.94;;;10.74;84.30
72055;BME280;59936;51.490;5.436;2024-03-22T06:54:19;101663.09;;;10.88;83.53
72055;BME280;59936;51.490;5.436;2024-03-22T06:56:46;101662.47;;;11.04;82.72
72055;BME280;59936;51.490;5.436;2024-03-22T06:59:12;101667.81;;;11.04;82.73
72055;BME280;59936;51.490;5.436;2024-03-22T07:01:39;101663.13;;;11.06;82.72
72055;BME280;59936;51.490;5.436;2024-03-22T07:04:06;101666.34;;;11.09;82.23
72055;BME280;59936;51.490;5.436;2024-03-22T07:06:33;101659.78;;;11.04;82.51
72055;BME280;59936;51.490;5.436;2024-03-22T07:09:00;101656.75;;;10.89;83.08
72055;BME280;59936;51.490;5.436;2024-03-22T07:11:27;101664.88;;;10.79;83.66
72055;BME280;59936;51.490;5.436;2024-03-22T07:13:54;101657.13;;;10.94;82.63
72055;BME280;59936;51.490;5.436;2024-03-22T07:16:20;101664.97;;;11.05;82.04
72055;BME280;59936;51.490;5.436;2024-03-22T07:18:47;101664.97;;;11.05;82.04
72055;BME280;59936;51.490;5.436;2024-03-22T07:21:14;101661.13;;;11.08;82.43
72055;BME280;59936;51.490;5.436;2024-03-22T07:23:41;101664.91;;;11.32;81.29
72055;BME280;59936;51.490;5.436;2024-03-22T07:26:08;101659.84;;;11.65;80.31
72055;BME280;59936;51.490;5.436;2024-03-22T07:28:35;101657.03;;;11.92;78.90
72055;BME280;59936;51.490;5.436;2024-03-22T07:31:02;101654.78;;;12.74;77.06
72055;BME280;59936;51.490;5.436;2024-03-22T07:33:31;101657.22;;;12.93;75.60
72055;BME280;59936;51.490;5.436;2024-03-22T07:36:02;101666.47;;;12.56;76.09
72055;BME280;59936;51.490;5.436;2024-03-22T07:38:29;101661.31;;;12.03;77.33
72055;BME280;59936;51.490;5.436;2024-03-22T07:40:56;101669.31;;;11.95;78.95
72055;BME280;59936;51.490;5.436;2024-03-22T07:43:23;101660.31;;;11.78;78.89
72055;BME280;59936;51.490;5.436;2024-03-22T07:45:50;101666.88;;;11.48;79.99
72055;BME280;59936;51.490;5.436;2024-03-22T07:48:17;101656.16;;;11.66;79.53
72055;BME280;59936;51.490;5.436;2024-03-22T07:50:44;101653.97;;;11.69;78.89
72055;BME280;59936;51.490;5.436;2024-03-22T07:53:10;101658.84;;;12.10;78.78
72055;BME280;59936;51.490;5.436;2024-03-22T07:55:37;101648.94;;;12.44;77.46
72055;BME280;59936;51.490;5.436;2024-03-22T07:58:04;101644.25;;;12.46;77.03
72055;BME280;59936;51.490;5.436;2024-03-22T08:00:31;101655.72;;;12.22;76.57
72055;BME280;59936;51.490;5.436;2024-03-22T08:02:58;101657.88;;;12.19;76.71
72055;BME280;59936;51.490;5.436;2024-03-22T08:05:24;101658.31;;;12.32;77.02
72055;BME280;59936;51.490;5.436;2024-03-22T08:07:51;101656.22;;;12.52;75.88
72055;BME280;59936;51.490;5.436;2024-03-22T08:10:18;101654.06;;;12.63;74.95
72055;BME280;59936;51.490;5.436;2024-03-22T08:12:45;101654.06;;;12.63;74.95
72055;BME280;59936;51.490;5.436;2024-03-22T08:15:12;101643.63;;;12.60;75.64
72055;BME280;59936;51.490;5.436;2024-03-22T08:17:39;101647.47;;;12.50;75.64
72055;BME280;59936;51.490;5.436;2024-03-22T08:20:06;101654.97;;;12.38;76.16
72055;BME280;59936;51.490;5.436;2024-03-22T08:22:33;101646.56;;;12.33;74.80
72055;BME280;59936;51.490;5.436;2024-03-22T08:25:00;101649.56;;;12.30;75.62
72055;BME280;59936;51.490;5.436;2024-03-22T08:27:27;101644.50;;;12.27;74.88
72055;BME280;59936;51.490;5.436;2024-03-22T08:29:54;101655.47;;;12.08;75.93
72055;BME280;59936;51.490;5.436;2024-03-22T08:32:21;101659.41;;;12.21;75.32
72055;BME280;59936;51.490;5.436;2024-03-22T08:34:48;101648.50;;;12.23;76.32
72055;BME280;59936;51.490;5.436;2024-03-22T08:37:14;101647.03;;;12.02;75.78
72055;BME280;59936;51.490;5.436;2024-03-22T08:39:41;101652.34;;;11.94;75.52
72055;BME280;59936;51.490;5.436;2024-03-22T08:42:08;101642.19;;;11.80;76.51
72055;BME280;59936;51.490;5.436;2024-03-22T08:44:35;101646.56;;;11.81;76.81
72055;BME280;59936;51.490;5.436;2024-03-22T08:47:03;101647.94;;;11.85;76.79
72055;BME280;59936;51.490;5.436;2024-03-22T08:49:30;101645.41;;;11.66;75.92
72055;BME280;59936;51.490;5.436;2024-03-22T08:51:56;101645.41;;;11.66;75.92
72055;BME280;59936;51.490;5.436;2024-03-22T08:54:23;101647.47;;;11.54;76.84
72055;BME280;59936;51.490;5.436;2024-03-22T08:56:50;101644.25;;;11.68;76.80
72055;BME280;59936;51.490;5.436;2024-03-22T08:59:17;101645.09;;;11.69;76.77
72055;BME280;59936;51.490;5.436;2024-03-22T09:01:44;101640.22;;;11.73;76.80
72055;BME280;59936;51.490;5.436;2024-03-22T09:04:11;101638.03;;;11.86;76.37
72055;BME280;59936;51.490;5.436;2024-03-22T09:06:38;101637.44;;;12.00;75.96
72055;BME280;59936;51.490;5.436;2024-03-22T09:09:04;101636.91;;;11.96;75.70
72055;BME280;59936;51.490;5.436;2024-03-22T09:11:31;101639.91;;;11.93;75.39
72055;BME280;59936;51.490;5.436;2024-03-22T09:13:58;101639.44;;;11.98;76.02
72055;BME280;59936;51.490;5.436;2024-03-22T09:16:25;101623.78;;;11.93;74.92
72055;BME280;59936;51.490;5.436;2024-03-22T09:18:52;101631.34;;;11.90;75.78
72055;BME280;59936;51.490;5.436;2024-03-22T09:21:19;101625.44;;;12.12;75.48
72055;BME280;59936;51.490;5.436;2024-03-22T09:23:45;101624.53;;;12.04;74.78
72055;BME280;59936;51.490;5.436;2024-03-22T09:26:12;101634.88;;;11.90;73.64
72055;BME280;59936;51.490;5.436;2024-03-22T09:28:39;101630.53;;;11.97;74.77
72055;BME280;59936;51.490;5.436;2024-03-22T09:31:07;101629.75;;;12.05;74.17
72055;BME280;59936;51.490;5.436;2024-03-22T09:33:34;101618.94;;;11.97;74.60
72055;BME280;59936;51.490;5.436;2024-03-22T09:36:02;101619.84;;;11.80;73.53
72055;BME280;59936;51.490;5.436;2024-03-22T09:38:29;101614.69;;;11.86;73.63
72055;BME280;59936;51.490;5.436;2024-03-22T09:40:56;101609.00;;;11.89;74.18
72055;BME280;59936;51.490;5.436;2024-03-22T09:43:23;101610.03;;;11.96;74.15
72055;BME280;59936;51.490;5.436;2024-03-22T09:45:54;101612.78;;;12.05;74.45
72055;BME280;59936;51.490;5.436;2024-03-22T09:48:22;101613.88;;;12.20;74.38
72055;BME280;59936;51.490;5.436;2024-03-22T09:50:49;101613.88;;;12.20;74.38
72055;BME280;59936;51.490;5.436;2024-03-22T09:53:20;101601.41;;;12.11;73.85
72055;BME280;59936;51.490;5.436;2024-03-22T09:55:48;101605.44;;;12.15;74.32
72055;BME280;59936;51.490;5.436;2024-03-22T09:58:16;101600.28;;;11.95;74.17
72055;BME280;59936;51.490;5.436;2024-03-22T10:00:43;101606.19;;;11.99;74.84
72055;BME280;59936;51.490;5.436;2024-03-22T10:03:10;101595.97;;;12.02;74.26
72055;BME280;59936;51.490;5.436;2024-03-22T10:05:37;101603.94;;;12.12;73.89
72055;BME280;59936;51.490;5.436;2024-03-22T10:08:04;101599.34;;;12.05;73.94
72055;BME280;59936;51.490;5.436;2024-03-22T10:10:32;101601.72;;;12.08;73.03
72055;BME280;59936;51.490;5.436;2024-03-22T10:13:03;101589.91;;;12.00;72.88
72055;BME280;59936;51.490;5.436;2024-03-22T10:15:30;101595.81;;;12.04;73.15
72055;BME280;59936;51.490;5.436;2024-03-22T10:17:57;101587.28;;;12.09;73.11
72055;BME280;59936;51.490;5.436;2024-03-22T10:20:24;101590.81;;;12.09;72.70
72055;BME280;59936;51.490;5.436;2024-03-22T10:22:59;101584.81;;;12.23;72.45
72055;BME280;59936;51.490;5.436;2024-03-22T10:25:26;101593.81;;;12.06;72.84
72055;BME280;59936;51.490;5.436;2024-03-22T10:27:55;101591.03;;;12.24;72.31
72055;BME280;59936;51.490;5.436;2024-03-22T10:30:23;101588.28;;;12.08;72.68
72055;BME280;59936;51.490;5.436;2024-03-22T10:32:51;101594.44;;;12.00;73.35
72055;BME280;59936;51.490;5.436;2024-03-22T10:35:18;101590.91;;;11.99;72.73
72055;BME280;59936;51.490;5.436;2024-03-22T10:37:46;101587.53;;;11.97;72.99
72055;BME280;59936;51.490;5.436;2024-03-22T10:40:13;101579.22;;;12.09;72.30
72055;BME280;59936;51.490;5.436;2024-03-22T10:42:40;101582.84;;;11.99;72.85
72055;BME280;59936;51.490;5.436;2024-03-22T10:45:10;101589.06;;;12.00;72.85
72055;BME280;59936;51.490;5.436;2024-03-22T10:47:38;101573.16;;;12.07;72.92
72055;BME280;59936;51.490;5.436;2024-03-22T10:50:06;101577.22;;;12.19;72.63
72055;BME280;59936;51.490;5.436;2024-03-22T10:52:56;101583.84;;;11.98;73.21
72055;BME280;59936;51.490;5.436;2024-03-22T10:55:32;101578.31;;;12.00;73.00
72055;BME280;59936;51.490;5.436;2024-03-22T10:58:02;101584.16;;;11.95;73.82
72055;BME280;59936;51.490;5.436;2024-03-22T11:00:31;101594.22;;;11.93;73.84
72055;BME280;59936;51.490;5.436;2024-03-22T11:03:04;101589.69;;;11.94;73.55
72055;BME280;59936;51.490;5.436;2024-03-22T11:05:33;101581.69;;;11.76;74.18
72055;BME280;59936;51.490;5.436;2024-03-22T11:08:00;101587.75;;;11.78;74.54
72055;BME280;59936;51.490;5.436;2024-03-22T11:10:29;101588.69;;;11.69;74.87
72055;BME280;59936;51.490;5.436;2024-03-22T11:13:01;101584.78;;;11.63;75.13
72055;BME280;59936;51.490;5.436;2024-03-22T11:15:30;101572.75;;;11.50;76.11
72055;BME280;59936;51.490;5.436;2024-03-22T11:17:57;101576.44;;;11.49;76.55
72055;BME280;59936;51.490;5.436;2024-03-22T11:20:25;101582.66;;;11.49;76.46
72055;BME280;59936;51.490;5.436;2024-03-22T11:22:53;101577.38;;;11.40;76.93
72055;BME280;59936;51.490;5.436;2024-03-22T11:25:21;101579.94;;;11.67;75.69
72055;BME280;59936;51.490;5.436;2024-03-22T11:27:48;101584.69;;;11.47;76.90
72055;BME280;59936;51.490;5.436;2024-03-22T11:30:16;101569.44;;;11.56;76.67
72055;BME280;59936;51.490;5.436;2024-03-22T11:32:43;101579.53;;;11.36;78.30
72055;BME280;59936;51.490;5.436;2024-03-22T11:35:13;101572.59;;;11.51;77.42
72055;BME280;59936;51.490;5.436;2024-03-22T11:37:40;101581.69;;;11.32;78.70
72055;BME280;59936;51.490;5.436;2024-03-22T11:40:11;101575.84;;;11.37;78.71
72055;BME280;59936;51.490;5.436;2024-03-22T11:42:46;101569.06;;;11.51;77.85
72055;BME280;59936;51.490;5.436;2024-03-22T11:45:17;101574.72;;;11.65;77.45
72055;BME280;59936;51.490;5.436;2024-03-22T11:47:48;101573.28;;;11.53;78.29
72055;BME280;59936;51.490;5.436;2024-03-22T11:50:15;101569.75;;;11.53;78.67
72055;BME280;59936;51.490;5.436;2024-03-22T11:52:43;101559.66;;;11.47;79.69
72055;BME280;59936;51.490;5.436;2024-03-22T11:55:10;101550.28;;;11.51;80.29
72055;BME280;59936;51.490;5.436;2024-03-22T11:57:37;101548.44;;;11.51;80.90
72055;BME280;59936;51.490;5.436;2024-03-22T12:00:05;101553.34;;;11.56;80.31
72055;BME280;59936;51.490;5.436;2024-03-22T12:02:35;101537.97;;;11.40;80.87
72055;BME280;59936;51.490;5.436;2024-03-22T12:05:04;101542.88;;;11.45;80.21
72055;BME280;59936;51.490;5.436;2024-03-22T12:07:32;101536.31;;;11.73;79.45
72055;BME280;59936;51.490;5.436;2024-03-22T12:10:00;101536.31;;;11.73;79.73
72055;BME280;59936;51.490;5.436;2024-03-22T12:12:27;101527.38;;;11.64;79.52
72055;BME280;59936;51.490;5.436;2024-03-22T12:14:55;101530.06;;;11.64;80.07
72055;BME280;59936;51.490;5.436;2024-03-22T12:17:22;101530.06;;;11.64;80.07
72055;BME280;59936;51.490;5.436;2024-03-22T12:19:49;101516.16;;;11.69;79.55
72055;BME280;59936;51.490;5.436;2024-03-22T12:22:16;101504.47;;;11.78;78.95
72055;BME280;59936;51.490;5.436;2024-03-22T12:24:43;101506.91;;;11.97;78.09
72055;BME280;59936;51.490;5.436;2024-03-22T12:27:10;101504.91;;;11.74;78.82
72055;BME280;59936;51.490;5.436;2024-03-22T12:29:37;101500.31;;;11.58;79.22
72055;BME280;59936;51.490;5.436;2024-03-22T12:32:04;101502.78;;;11.51;80.05
72055;BME280;59936;51.490;5.436;2024-03-22T12:34:32;101494.53;;;11.45;80.69
72055;BME280;59936;51.490;5.436;2024-03-22T12:37:00;101492.69;;;11.45;80.46
72055;BME280;59936;51.490;5.436;2024-03-22T12:39:26;101497.84;;;11.39;80.71
72055;BME280;59936;51.490;5.436;2024-03-22T12:41:54;101497.84;;;11.39;80.71
72055;BME280;59936;51.490;5.436;2024-03-22T12:44:21;101483.50;;;11.30;81.38
72055;BME280;59936;51.490;5.436;2024-03-22T12:46:47;101482.41;;;11.41;80.18
72055;BME280;59936;51.490;5.436;2024-03-22T12:49:14;101479.78;;;11.23;81.30
72055;BME280;59936;51.490;5.436;2024-03-22T12:51:41;101478.94;;;11.22;81.78
72055;BME280;59936;51.490;5.436;2024-03-22T12:54:08;101487.94;;;11.13;82.14
72055;BME280;59936;51.490;5.436;2024-03-22T12:56:36;101483.66;;;11.03;83.05
72055;BME280;59936;51.490;5.436;2024-03-22T12:59:02;101477.81;;;11.07;82.31
72055;BME280;59936;51.490;5.436;2024-03-22T13:01:29;101474.66;;;11.12;82.42
72055;BME280;59936;51.490;5.436;2024-03-22T13:03:56;101479.63;;;11.24;81.23
72055;BME280;59936;51.490;5.436;2024-03-22T13:06:23;101479.41;;;11.18;81.63